sensor_id;sensor_type;location;lat;lon;timestamp;P1;durP1;ratioP1;P2;durP2;ratioP2
63316;SDS011;49822;41.468;13.560;2022-09-25T00:01:50;7.70;;;3.10;;
63316;SDS011;49822;41.468;13.560;2022-09-25T00:04:17;4.97;;;2.70;;
63316;SDS011;49822;41.468;13.560;2022-09-25T00:06:46;6.20;;;2.88;;
63316;SDS011;49822;41.468;13.560;2022-09-25T00:09:14;4.60;;;3.00;;
63316;SDS011;49822;41.468;13.560;2022-09-25T00:11:45;4.22;;;2.70;;
63316;SDS011;49822;41.468;13.560;2022-09-25T00:14:13;4.95;;;2.88;;
63316;SDS011;49822;41.468;13.560;2022-09-25T00:16:40;4.15;;;2.60;;
63316;SDS011;49822;41.468;13.560;2022-09-25T00:19:08;3.65;;;2.40;;
63316;SDS011;49822;41.468;13.560;2022-09-25T00:22:00;9.20;;;3.05;;
63316;SDS011;49822;41.468;13.560;2022-09-25T00:24:28;5.18;;;2.72;;
63316;SDS011;49822;41.468;13.560;2022-09-25T00:26:55;4.28;;;2.58;;
63316;SDS011;49822;41.468;13.560;2022-09-25T00:29:23;3.05;;;2.28;;
63316;SDS011;49822;41.468;13.560;2022-09-25T00:31:50;3.83;;;2.75;;
63316;SDS011;49822;41.468;13.560;2022-09-25T00:34:17;5.13;;;2.83;;
63316;SDS011;49822;41.468;13.560;2022-09-25T00:36:45;4.90;;;2.80;;
63316;SDS011;49822;41.468;13.560;2022-09-25T00:39:12;3.72;;;2.63;;
63316;SDS011;49822;41.468;13.560;2022-09-25T00:41:40;4.30;;;2.78;;
63316;SDS011;49822;41.468;13.560;2022-09-25T00:47:14;4.70;;;2.70;;
63316;SDS011;49822;41.468;13.560;2022-09-25T00:49:46;6.57;;;2.60;;
63316;SDS011;49822;41.468;13.560;2022-09-25T00:52:13;4.05;;;2.78;;
63316;SDS011;49822;41.468;13.560;2022-09-25T00:54:43;7.60;;;3.15;;
63316;SDS011;49822;41.468;13.560;2022-09-25T00:57:17;5.22;;;2.42;;
63316;SDS011;49822;41.468;13.560;2022-09-25T00:59:54;5.68;;;2.92;;
63316;SDS011;49822;41.468;13.560;2022-09-25T01:02:29;4.55;;;2.78;;
63316;SDS011;49822;41.468;13.560;2022-09-25T01:05:03;7.25;;;3.03;;
63316;SDS011;49822;41.468;13.560;2022-09-25T01:07:33;7.72;;;3.10;;
63316;SDS011;49822;41.468;13.560;2022-09-25T01:10:04;3.97;;;2.70;;
63316;SDS011;49822;41.468;13.560;2022-09-25T01:12:40;5.05;;;2.75;;
63316;SDS011;49822;41.468;13.560;2022-09-25T01:15:11;4.40;;;2.80;;
63316;SDS011;49822;41.468;13.560;2022-09-25T01:31:34;5.90;;;3.20;;
63316;SDS011;49822;41.468;13.560;2022-09-25T01:34:23;5.28;;;3.03;;
63316;SDS011;49822;41.468;13.560;2022-09-25T01:37:01;5.30;;;3.05;;
63316;SDS011;49822;41.468;13.560;2022-09-25T01:39:45;7.55;;;3.40;;
63316;SDS011;49822;41.468;13.560;2022-09-25T01:42:24;4.53;;;3.13;;
63316;SDS011;49822;41.468;13.560;2022-09-25T01:45:00;5.78;;;3.28;;
63316;SDS011;49822;41.468;13.560;2022-09-25T01:47:34;4.82;;;2.97;;
63316;SDS011;49822;41.468;13.560;2022-09-25T01:50:06;6.32;;;3.22;;
63316;SDS011;49822;41.468;13.560;2022-09-25T01:52:48;5.57;;;2.92;;
63316;SDS011;49822;41.468;13.560;2022-09-25T01:55:26;7.63;;;3.03;;
63316;SDS011;49822;41.468;13.560;2022-09-25T01:58:03;7.32;;;2.85;;
63316;SDS011;49822;41.468;13.560;2022-09-25T02:00:38;7.03;;;3.10;;
63316;SDS011;49822;41.468;13.560;2022-09-25T02:03:11;6.70;;;3.00;;
63316;SDS011;49822;41.468;13.560;2022-09-25T02:05:47;4.40;;;2.88;;
63316;SDS011;49822;41.468;13.560;2022-09-25T02:08:20;10.10;;;3.47;;
63316;SDS011;49822;41.468;13.560;2022-09-25T02:10:55;4.03;;;2.40;;
63316;SDS011;49822;41.468;13.560;2022-09-25T02:13:47;6.43;;;3.08;;
63316;SDS011;49822;41.468;13.560;2022-09-25T02:16:21;7.15;;;3.00;;
63316;SDS011;49822;41.468;13.560;2022-09-25T02:18:53;7.45;;;3.08;;
63316;SDS011;49822;41.468;13.560;2022-09-25T02:27:05;7.53;;;2.88;;
63316;SDS011;49822;41.468;13.560;2022-09-25T02:29:33;6.32;;;2.42;;
63316;SDS011;49822;41.468;13.560;2022-09-25T02:32:17;7.65;;;2.70;;
63316;SDS011;49822;41.468;13.560;2022-09-25T02:34:48;9.07;;;2.97;;
63316;SDS011;49822;41.468;13.560;2022-09-25T02:37:16;9.43;;;3.33;;
63316;SDS011;49822;41.468;13.560;2022-09-25T02:39:49;7.55;;;3.60;;
63316;SDS011;49822;41.468;13.560;2022-09-25T02:58:51;11.18;;;4.00;;
63316;SDS011;49822;41.468;13.560;2022-09-25T03:01:25;7.10;;;3.03;;
63316;SDS011;49822;41.468;13.560;2022-09-25T03:03:55;6.93;;;3.03;;
63316;SDS011;49822;41.468;13.560;2022-09-25T03:06:26;14.35;;;4.10;;
63316;SDS011;49822;41.468;13.560;2022-09-25T03:08:55;12.70;;;2.90;;
63316;SDS011;49822;41.468;13.560;2022-09-25T03:11:26;4.03;;;2.50;;
63316;SDS011;49822;41.468;13.560;2022-09-25T03:13:57;9.55;;;3.47;;
63316;SDS011;49822;41.468;13.560;2022-09-25T03:19:17;4.60;;;2.60;;
63316;SDS011;49822;41.468;13.560;2022-09-25T03:21:46;5.60;;;2.80;;
63316;SDS011;49822;41.468;13.560;2022-09-25T03:24:15;4.22;;;2.38;;
63316;SDS011;49822;41.468;13.560;2022-09-25T03:26:43;5.97;;;3.40;;
63316;SDS011;49822;41.468;13.560;2022-09-25T03:29:12;5.65;;;2.90;;
63316;SDS011;49822;41.468;13.560;2022-09-25T03:31:40;5.50;;;3.35;;
63316;SDS011;49822;41.468;13.560;2022-09-25T03:34:10;6.38;;;2.97;;
63316;SDS011;49822;41.468;13.560;2022-09-25T03:36:39;4.97;;;2.97;;
63316;SDS011;49822;41.468;13.560;2022-09-25T03:39:07;6.50;;;2.95;;
63316;SDS011;49822;41.468;13.560;2022-09-25T03:41:42;8.90;;;3.22;;
63316;SDS011;49822;41.468;13.560;2022-09-25T03:44:11;5.45;;;2.78;;
63316;SDS011;49822;41.468;13.560;2022-09-25T03:46:38;11.68;;;3.70;;
63316;SDS011;49822;41.468;13.560;2022-09-25T03:49:06;7.78;;;3.47;;
63316;SDS011;49822;41.468;13.560;2022-09-25T03:51:33;5.85;;;3.08;;
63316;SDS011;49822;41.468;13.560;2022-09-25T03:54:02;6.32;;;2.95;;
63316;SDS011;49822;41.468;13.560;2022-09-25T03:56:30;10.60;;;3.60;;
63316;SDS011;49822;41.468;13.560;2022-09-25T03:58:58;5.93;;;2.85;;
63316;SDS011;49822;41.468;13.560;2022-09-25T04:01:26;5.47;;;2.55;;
63316;SDS011;49822;41.468;13.560;2022-09-25T04:03:54;4.22;;;2.70;;
63316;SDS011;49822;41.468;13.560;2022-09-25T04:06:23;5.60;;;3.08;;
63316;SDS011;49822;41.468;13.560;2022-09-25T04:08:52;6.63;;;2.80;;
63316;SDS011;49822;41.468;13.560;2022-09-25T04:11:21;8.57;;;3.28;;
63316;SDS011;49822;41.468;13.560;2022-09-25T04:13:50;6.97;;;3.60;;
63316;SDS011;49822;41.468;13.560;2022-09-25T04:16:18;11.73;;;3.05;;
63316;SDS011;49822;41.468;13.560;2022-09-25T04:18:47;6.82;;;3.78;;
63316;SDS011;49822;41.468;13.560;2022-09-25T04:21:16;11.33;;;3.90;;
63316;SDS011;49822;41.468;13.560;2022-09-25T04:23:44;5.20;;;3.47;;
63316;SDS011;49822;41.468;13.560;2022-09-25T04:26:30;8.65;;;4.20;;
63316;SDS011;49822;41.468;13.560;2022-09-25T04:28:58;11.95;;;5.57;;
63316;SDS011;49822;41.468;13.560;2022-09-25T04:31:29;14.13;;;5.07;;
63316;SDS011;49822;41.468;13.560;2022-09-25T04:33:57;9.98;;;4.82;;
63316;SDS011;49822;41.468;13.560;2022-09-25T04:36:25;7.72;;;1.80;;
63316;SDS011;49822;41.468;13.560;2022-09-25T04:38:52;5.03;;;1.60;;
63316;SDS011;49822;41.468;13.560;2022-09-25T04:41:20;2.15;;;1.25;;
63316;SDS011;49822;41.468;13.560;2022-09-25T04:43:48;0.80;;;0.80;;
63316;SDS011;49822;41.468;13.560;2022-09-25T04:46:15;2.35;;;1.08;;
63316;SDS011;49822;41.468;13.560;2022-09-25T04:48:48;1.80;;;1.02;;
63316;SDS011;49822;41.468;13.560;2022-09-25T04:51:15;2.40;;;1.42;;
63316;SDS011;49822;41.468;13.560;2022-09-25T04:53:43;2.25;;;1.33;;
63316;SDS011;49822;41.468;13.560;2022-09-25T04:56:12;2.08;;;1.20;;
63316;SDS011;49822;41.468;13.560;2022-09-25T04:58:45;4.60;;;1.13;;
63316;SDS011;49822;41.468;13.560;2022-09-25T05:01:15;3.60;;;1.15;;
63316;SDS011;49822;41.468;13.560;2022-09-25T05:03:48;2.15;;;1.42;;
63316;SDS011;49822;41.468;13.560;2022-09-25T05:06:20;2.45;;;1.30;;
63316;SDS011;49822;41.468;13.560;2022-09-25T05:08:48;1.48;;;1.05;;
63316;SDS011;49822;41.468;13.560;2022-09-25T05:11:17;2.13;;;1.15;;
63316;SDS011;49822;41.468;13.560;2022-09-25T05:13:49;2.88;;;1.50;;
63316;SDS011;49822;41.468;13.560;2022-09-25T05:16:18;2.55;;;1.33;;
63316;SDS011;49822;41.468;13.560;2022-09-25T05:18:46;2.53;;;1.23;;
63316;SDS011;49822;41.468;13.560;2022-09-25T05:21:14;1.80;;;1.33;;
63316;SDS011;49822;41.468;13.560;2022-09-25T05:23:41;1.67;;;1.10;;
63316;SDS011;49822;41.468;13.560;2022-09-25T05:26:09;2.45;;;1.25;;
63316;SDS011;49822;41.468;13.560;2022-09-25T05:28:36;1.02;;;0.98;;
63316;SDS011;49822;41.468;13.560;2022-09-25T05:31:06;1.10;;;1.00;;
63316;SDS011;49822;41.468;13.560;2022-09-25T05:33:35;1.13;;;1.02;;
63316;SDS011;49822;41.468;13.560;2022-09-25T05:36:03;1.02;;;0.93;;
63316;SDS011;49822;41.468;13.560;2022-09-25T05:38:34;1.85;;;1.42;;
63316;SDS011;49822;41.468;13.560;2022-09-25T05:43:36;3.90;;;1.40;;
63316;SDS011;49822;41.468;13.560;2022-09-25T05:46:06;3.42;;;1.90;;
63316;SDS011;49822;41.468;13.560;2022-09-25T05:48:33;3.72;;;1.83;;
63316;SDS011;49822;41.468;13.560;2022-09-25T05:51:01;2.15;;;1.30;;
63316;SDS011;49822;41.468;13.560;2022-09-25T05:53:29;1.70;;;1.15;;
63316;SDS011;49822;41.468;13.560;2022-09-25T05:55:57;0.90;;;0.90;;
63316;SDS011;49822;41.468;13.560;2022-09-25T05:58:26;1.63;;;1.10;;
63316;SDS011;49822;41.468;13.560;2022-09-25T06:01:14;2.17;;;0.75;;
63316;SDS011;49822;41.468;13.560;2022-09-25T06:03:43;2.53;;;1.40;;
63316;SDS011;49822;41.468;13.560;2022-09-25T06:06:11;1.73;;;1.08;;
63316;SDS011;49822;41.468;13.560;2022-09-25T06:08:39;3.53;;;1.48;;
63316;SDS011;49822;41.468;13.560;2022-09-25T06:11:06;1.75;;;1.25;;
63316;SDS011;49822;41.468;13.560;2022-09-25T06:13:34;2.35;;;1.20;;
63316;SDS011;49822;41.468;13.560;2022-09-25T06:16:03;1.67;;;1.33;;
63316;SDS011;49822;41.468;13.560;2022-09-25T06:18:31;2.40;;;1.02;;
63316;SDS011;49822;41.468;13.560;2022-09-25T06:21:00;1.23;;;1.08;;
63316;SDS011;49822;41.468;13.560;2022-09-25T06:23:29;2.67;;;1.20;;
63316;SDS011;49822;41.468;13.560;2022-09-25T06:26:01;1.00;;;1.00;;
63316;SDS011;49822;41.468;13.560;2022-09-25T06:28:30;1.52;;;1.10;;
63316;SDS011;49822;41.468;13.560;2022-09-25T06:30:59;2.50;;;1.33;;
63316;SDS011;49822;41.468;13.560;2022-09-25T06:33:27;1.90;;;1.15;;
63316;SDS011;49822;41.468;13.560;2022-09-25T06:35:54;1.38;;;1.00;;
63316;SDS011;49822;41.468;13.560;2022-09-25T06:38:22;1.52;;;0.80;;
63316;SDS011;49822;41.468;13.560;2022-09-25T06:40:49;3.65;;;1.20;;
63316;SDS011;49822;41.468;13.560;2022-09-25T06:43:17;0.98;;;0.90;;
63316;SDS011;49822;41.468;13.560;2022-09-25T06:45:45;1.02;;;0.90;;
63316;SDS011;49822;41.468;13.560;2022-09-25T06:48:13;0.98;;;0.90;;
63316;SDS011;49822;41.468;13.560;2022-09-25T06:50:48;0.82;;;0.82;;
63316;SDS011;49822;41.468;13.560;2022-09-25T06:53:18;2.38;;;1.00;;
63316;SDS011;49822;41.468;13.560;2022-09-25T06:55:47;1.55;;;1.20;;
63316;SDS011;49822;41.468;13.560;2022-09-25T06:58:16;4.05;;;2.25;;
63316;SDS011;49822;41.468;13.560;2022-09-25T07:00:47;6.78;;;2.88;;
63316;SDS011;49822;41.468;13.560;2022-09-25T07:03:21;5.38;;;2.42;;
63316;SDS011;49822;41.468;13.560;2022-09-25T07:06:09;4.03;;;2.38;;
63316;SDS011;49822;41.468;13.560;2022-09-25T07:08:40;4.75;;;1.70;;
63316;SDS011;49822;41.468;13.560;2022-09-25T07:11:17;4.95;;;1.73;;
63316;SDS011;49822;41.468;13.560;2022-09-25T07:13:59;4.40;;;1.90;;
63316;SDS011;49822;41.468;13.560;2022-09-25T07:16:27;4.13;;;1.75;;
63316;SDS011;49822;41.468;13.560;2022-09-25T07:18:56;5.97;;;1.80;;
63316;SDS011;49822;41.468;13.560;2022-09-25T07:21:28;3.72;;;1.70;;
63316;SDS011;49822;41.468;13.560;2022-09-25T07:23:58;3.28;;;2.10;;
63316;SDS011;49822;41.468;13.560;2022-09-25T07:26:26;7.30;;;3.33;;
63316;SDS011;49822;41.468;13.560;2022-09-25T07:28:59;4.32;;;2.38;;
63316;SDS011;49822;41.468;13.560;2022-09-25T07:31:29;1.90;;;1.42;;
63316;SDS011;49822;41.468;13.560;2022-09-25T07:33:59;4.72;;;1.80;;
63316;SDS011;49822;41.468;13.560;2022-09-25T07:36:31;3.60;;;1.67;;
63316;SDS011;49822;41.468;13.560;2022-09-25T07:38:59;2.20;;;1.65;;
63316;SDS011;49822;41.468;13.560;2022-09-25T07:41:27;2.45;;;1.40;;
63316;SDS011;49822;41.468;13.560;2022-09-25T07:43:54;3.63;;;1.58;;
63316;SDS011;49822;41.468;13.560;2022-09-25T07:46:43;2.65;;;1.50;;
63316;SDS011;49822;41.468;13.560;2022-09-25T07:49:12;2.40;;;1.40;;
63316;SDS011;49822;41.468;13.560;2022-09-25T07:51:39;4.22;;;1.40;;
63316;SDS011;49822;41.468;13.560;2022-09-25T07:54:06;3.45;;;1.65;;
63316;SDS011;49822;41.468;13.560;2022-09-25T07:56:34;2.85;;;1.30;;
63316;SDS011;49822;41.468;13.560;2022-09-25T07:59:04;1.67;;;1.20;;
63316;SDS011;49822;41.468;13.560;2022-09-25T08:01:31;3.00;;;1.40;;
63316;SDS011;49822;41.468;13.560;2022-09-25T08:03:59;2.65;;;1.73;;
63316;SDS011;49822;41.468;13.560;2022-09-25T08:06:27;2.47;;;1.60;;
63316;SDS011;49822;41.468;13.560;2022-09-25T08:08:55;3.72;;;1.50;;
63316;SDS011;49822;41.468;13.560;2022-09-25T08:11:24;3.45;;;1.50;;
63316;SDS011;49822;41.468;13.560;2022-09-25T08:13:53;2.72;;;1.95;;
63316;SDS011;49822;41.468;13.560;2022-09-25T08:16:21;7.13;;;2.00;;
63316;SDS011;49822;41.468;13.560;2022-09-25T08:18:48;5.55;;;2.40;;
63316;SDS011;49822;41.468;13.560;2022-09-25T08:21:17;3.83;;;1.98;;
63316;SDS011;49822;41.468;13.560;2022-09-25T08:23:50;3.15;;;1.80;;
63316;SDS011;49822;41.468;13.560;2022-09-25T08:26:19;2.58;;;1.80;;
63316;SDS011;49822;41.468;13.560;2022-09-25T08:28:48;6.28;;;2.00;;
63316;SDS011;49822;41.468;13.560;2022-09-25T08:31:16;2.67;;;1.70;;
63316;SDS011;49822;41.468;13.560;2022-09-25T08:33:44;2.65;;;1.80;;
63316;SDS011;49822;41.468;13.560;2022-09-25T08:36:13;3.90;;;1.65;;
63316;SDS011;49822;41.468;13.560;2022-09-25T08:38:41;2.80;;;1.90;;
63316;SDS011;49822;41.468;13.560;2022-09-25T08:41:22;2.58;;;1.58;;
63316;SDS011;49822;41.468;13.560;2022-09-25T08:43:54;2.55;;;1.90;;
63316;SDS011;49822;41.468;13.560;2022-09-25T08:46:26;2.55;;;1.60;;
63316;SDS011;49822;41.468;13.560;2022-09-25T08:49:22;3.47;;;2.17;;
63316;SDS011;49822;41.468;13.560;2022-09-25T08:51:52;2.58;;;1.80;;
63316;SDS011;49822;41.468;13.560;2022-09-25T08:54:26;3.13;;;1.83;;
63316;SDS011;49822;41.468;13.560;2022-09-25T08:57:00;3.42;;;1.98;;
63316;SDS011;49822;41.468;13.560;2022-09-25T08:59:39;3.20;;;1.60;;
63316;SDS011;49822;41.468;13.560;2022-09-25T09:02:32;3.25;;;1.75;;
63316;SDS011;49822;41.468;13.560;2022-09-25T09:05:06;4.88;;;2.30;;
63316;SDS011;49822;41.468;13.560;2022-09-25T09:07:43;3.88;;;2.25;;
63316;SDS011;49822;41.468;13.560;2022-09-25T09:12:51;3.70;;;1.98;;
63316;SDS011;49822;41.468;13.560;2022-09-25T09:15:29;4.15;;;1.30;;
63316;SDS011;49822;41.468;13.560;2022-09-25T09:18:24;2.58;;;1.60;;
63316;SDS011;49822;41.468;13.560;2022-09-25T09:23:55;3.08;;;1.73;;
63316;SDS011;49822;41.468;13.560;2022-09-25T09:35:14;3.35;;;1.88;;
63316;SDS011;49822;41.468;13.560;2022-09-25T09:37:57;2.78;;;1.80;;
63316;SDS011;49822;41.468;13.560;2022-09-25T09:40:41;4.75;;;1.85;;
63316;SDS011;49822;41.468;13.560;2022-09-25T09:46:35;3.08;;;2.00;;
63316;SDS011;49822;41.468;13.560;2022-09-25T09:49:20;3.38;;;1.88;;
63316;SDS011;49822;41.468;13.560;2022-09-25T09:52:09;2.85;;;2.00;;
63316;SDS011;49822;41.468;13.560;2022-09-25T09:54:54;3.75;;;1.95;;
63316;SDS011;49822;41.468;13.560;2022-09-25T09:57:48;2.53;;;1.70;;
63316;SDS011;49822;41.468;13.560;2022-09-25T10:00:21;4.50;;;1.80;;
63316;SDS011;49822;41.468;13.560;2022-09-25T10:02:59;3.58;;;1.95;;
63316;SDS011;49822;41.468;13.560;2022-09-25T10:05:33;3.55;;;2.15;;
63316;SDS011;49822;41.468;13.560;2022-09-25T10:08:05;5.60;;;2.30;;
63316;SDS011;49822;41.468;13.560;2022-09-25T10:10:35;5.07;;;2.60;;
63316;SDS011;49822;41.468;13.560;2022-09-25T10:13:09;4.75;;;2.40;;
63316;SDS011;49822;41.468;13.560;2022-09-25T10:15:55;5.50;;;2.50;;
63316;SDS011;49822;41.468;13.560;2022-09-25T10:19:06;5.30;;;2.70;;
63316;SDS011;49822;41.468;13.560;2022-09-25T10:27:28;3.92;;;2.42;;
63316;SDS011;49822;41.468;13.560;2022-09-25T10:32:54;3.60;;;2.40;;
63316;SDS011;49822;41.468;13.560;2022-09-25T10:35:45;4.13;;;2.33;;
63316;SDS011;49822;41.468;13.560;2022-09-25T10:38:32;4.45;;;2.35;;
63316;SDS011;49822;41.468;13.560;2022-09-25T10:41:10;6.65;;;2.30;;
63316;SDS011;49822;41.468;13.560;2022-09-25T10:44:00;5.18;;;2.35;;
63316;SDS011;49822;41.468;13.560;2022-09-25T10:46:29;4.28;;;1.90;;
63316;SDS011;49822;41.468;13.560;2022-09-25T10:49:23;6.55;;;1.85;;
63316;SDS011;49822;41.468;13.560;2022-09-25T10:52:14;4.50;;;2.13;;
63316;SDS011;49822;41.468;13.560;2022-09-25T10:54:47;6.00;;;2.70;;
63316;SDS011;49822;41.468;13.560;2022-09-25T10:59:48;6.30;;;2.50;;
63316;SDS011;49822;41.468;13.560;2022-09-25T11:02:37;3.63;;;2.42;;
63316;SDS011;49822;41.468;13.560;2022-09-25T11:05:13;4.45;;;2.03;;
63316;SDS011;49822;41.468;13.560;2022-09-25T11:07:51;4.25;;;2.00;;
63316;SDS011;49822;41.468;13.560;2022-09-25T11:10:21;2.33;;;1.77;;
63316;SDS011;49822;41.468;13.560;2022-09-25T11:13:16;6.95;;;2.40;;
63316;SDS011;49822;41.468;13.560;2022-09-25T11:15:50;5.72;;;2.53;;
63316;SDS011;49822;41.468;13.560;2022-09-25T11:24:28;4.47;;;2.85;;
63316;SDS011;49822;41.468;13.560;2022-09-25T11:27:09;3.17;;;2.10;;
63316;SDS011;49822;41.468;13.560;2022-09-25T11:36:32;2.20;;;1.70;;
63316;SDS011;49822;41.468;13.560;2022-09-25T11:49:32;5.30;;;2.10;;
63316;SDS011;49822;41.468;13.560;2022-09-25T11:57:46;3.10;;;1.70;;
63316;SDS011;49822;41.468;13.560;2022-09-25T12:03:44;5.65;;;2.22;;
63316;SDS011;49822;41.468;13.560;2022-09-25T12:06:42;4.85;;;2.25;;
63316;SDS011;49822;41.468;13.560;2022-09-25T12:15:28;3.08;;;2.03;;
63316;SDS011;49822;41.468;13.560;2022-09-25T12:21:07;3.45;;;1.73;;
63316;SDS011;49822;41.468;13.560;2022-09-25T12:23:53;4.45;;;1.98;;
63316;SDS011;49822;41.468;13.560;2022-09-25T12:26:44;4.90;;;1.90;;
63316;SDS011;49822;41.468;13.560;2022-09-25T12:35:12;4.15;;;1.58;;
63316;SDS011;49822;41.468;13.560;2022-09-25T12:37:58;3.65;;;1.90;;
63316;SDS011;49822;41.468;13.560;2022-09-25T12:40:41;2.90;;;1.77;;
63316;SDS011;49822;41.468;13.560;2022-09-25T12:43:27;4.55;;;1.90;;
63316;SDS011;49822;41.468;13.560;2022-09-25T12:46:06;2.95;;;1.60;;
63316;SDS011;49822;41.468;13.560;2022-09-25T12:48:41;4.63;;;1.60;;
63316;SDS011;49822;41.468;13.560;2022-09-25T12:51:16;2.63;;;1.73;;
63316;SDS011;49822;41.468;13.560;2022-09-25T12:53:48;3.47;;;1.60;;
63316;SDS011;49822;41.468;13.560;2022-09-25T12:56:41;5.50;;;1.67;;
63316;SDS011;49822;41.468;13.560;2022-09-25T12:59:31;2.13;;;1.52;;
63316;SDS011;49822;41.468;13.560;2022-09-25T13:02:22;2.63;;;1.60;;
63316;SDS011;49822;41.468;13.560;2022-09-25T13:10:41;2.65;;;1.85;;
63316;SDS011;49822;41.468;13.560;2022-09-25T13:13:25;2.92;;;1.45;;
63316;SDS011;49822;41.468;13.560;2022-09-25T13:15:59;2.08;;;1.30;;
63316;SDS011;49822;41.468;13.560;2022-09-25T13:18:28;2.25;;;1.55;;
63316;SDS011;49822;41.468;13.560;2022-09-25T13:23:55;3.08;;;1.70;;
63316;SDS011;49822;41.468;13.560;2022-09-25T13:26:27;2.65;;;1.33;;
63316;SDS011;49822;41.468;13.560;2022-09-25T13:29:01;2.03;;;1.58;;
63316;SDS011;49822;41.468;13.560;2022-09-25T13:31:40;2.85;;;1.70;;
63316;SDS011;49822;41.468;13.560;2022-09-25T13:34:11;4.67;;;1.40;;
63316;SDS011;49822;41.468;13.560;2022-09-25T13:42:22;3.50;;;1.55;;
63316;SDS011;49822;41.468;13.560;2022-09-25T13:44:57;2.92;;;1.80;;
63316;SDS011;49822;41.468;13.560;2022-09-25T14:01:15;3.75;;;1.40;;
63316;SDS011;49822;41.468;13.560;2022-09-25T14:08:53;1.55;;;1.45;;
63316;SDS011;49822;41.468;13.560;2022-09-25T14:11:25;1.30;;;1.20;;
63316;SDS011;49822;41.468;13.560;2022-09-25T14:14:01;3.80;;;1.60;;
63316;SDS011;49822;41.468;13.560;2022-09-25T14:16:34;1.85;;;1.50;;
63316;SDS011;49822;41.468;13.560;2022-09-25T14:19:16;2.92;;;1.83;;
63316;SDS011;49822;41.468;13.560;2022-09-25T14:21:48;3.33;;;1.55;;
63316;SDS011;49822;41.468;13.560;2022-09-25T14:24:20;2.90;;;1.65;;
63316;SDS011;49822;41.468;13.560;2022-09-25T14:26:51;3.58;;;1.77;;
63316;SDS011;49822;41.468;13.560;2022-09-25T14:29:23;4.10;;;1.98;;
63316;SDS011;49822;41.468;13.560;2022-09-25T14:32:00;3.03;;;1.80;;
63316;SDS011;49822;41.468;13.560;2022-09-25T14:34:50;2.05;;;1.65;;
63316;SDS011;49822;41.468;13.560;2022-09-25T14:40:43;2.70;;;1.75;;
63316;SDS011;49822;41.468;13.560;2022-09-25T14:48:22;2.40;;;1.70;;
63316;SDS011;49822;41.468;13.560;2022-09-25T14:51:11;2.95;;;1.77;;
63316;SDS011;49822;41.468;13.560;2022-09-25T14:54:07;4.20;;;1.70;;
63316;SDS011;49822;41.468;13.560;2022-09-25T14:56:41;3.20;;;1.70;;
63316;SDS011;49822;41.468;13.560;2022-09-25T14:59:22;3.55;;;1.48;;
63316;SDS011;49822;41.468;13.560;2022-09-25T15:02:11;2.17;;;1.73;;
63316;SDS011;49822;41.468;13.560;2022-09-25T15:04:49;2.63;;;1.63;;
63316;SDS011;49822;41.468;13.560;2022-09-25T15:07:22;3.13;;;1.92;;
63316;SDS011;49822;41.468;13.560;2022-09-25T15:09:52;4.82;;;2.28;;
63316;SDS011;49822;41.468;13.560;2022-09-25T15:12:26;4.65;;;2.38;;
63316;SDS011;49822;41.468;13.560;2022-09-25T15:14:56;4.35;;;2.30;;
63316;SDS011;49822;41.468;13.560;2022-09-25T15:17:24;5.88;;;2.33;;
63316;SDS011;49822;41.468;13.560;2022-09-25T15:19:53;4.43;;;2.47;;
63316;SDS011;49822;41.468;13.560;2022-09-25T15:22:27;3.78;;;2.10;;
63316;SDS011;49822;41.468;13.560;2022-09-25T15:25:02;3.72;;;1.90;;
63316;SDS011;49822;41.468;13.560;2022-09-25T15:27:33;2.15;;;1.70;;
63316;SDS011;49822;41.468;13.560;2022-09-25T15:30:15;3.95;;;2.42;;
63316;SDS011;49822;41.468;13.560;2022-09-25T15:32:49;4.72;;;1.67;;
63316;SDS011;49822;41.468;13.560;2022-09-25T15:35:26;3.35;;;1.83;;
63316;SDS011;49822;41.468;13.560;2022-09-25T15:38:01;4.57;;;2.00;;
63316;SDS011;49822;41.468;13.560;2022-09-25T15:40:34;2.75;;;1.70;;
63316;SDS011;49822;41.468;13.560;2022-09-25T15:43:02;2.53;;;2.00;;
63316;SDS011;49822;41.468;13.560;2022-09-25T15:45:47;2.08;;;1.40;;
63316;SDS011;49822;41.468;13.560;2022-09-25T15:48:30;3.45;;;2.00;;
63316;SDS011;49822;41.468;13.560;2022-09-25T15:51:12;4.93;;;2.08;;
63316;SDS011;49822;41.468;13.560;2022-09-25T15:54:00;2.85;;;1.58;;
63316;SDS011;49822;41.468;13.560;2022-09-25T15:56:38;1.95;;;1.48;;
63316;SDS011;49822;41.468;13.560;2022-09-25T15:59:30;1.75;;;1.40;;
63316;SDS011;49822;41.468;13.560;2022-09-25T16:02:46;2.30;;;1.60;;
63316;SDS011;49822;41.468;13.560;2022-09-25T16:06:18;1.88;;;1.58;;
63316;SDS011;49822;41.468;13.560;2022-09-25T16:09:16;2.90;;;1.50;;
63316;SDS011;49822;41.468;13.560;2022-09-25T16:12:31;5.55;;;1.63;;
63316;SDS011;49822;41.468;13.560;2022-09-25T16:15:49;2.25;;;1.60;;
63316;SDS011;49822;41.468;13.560;2022-09-25T16:18:41;2.97;;;1.55;;
63316;SDS011;49822;41.468;13.560;2022-09-25T16:21:37;2.42;;;1.80;;
63316;SDS011;49822;41.468;13.560;2022-09-25T16:25:02;2.47;;;1.65;;
63316;SDS011;49822;41.468;13.560;2022-09-25T16:28:35;2.10;;;1.52;;
63316;SDS011;49822;41.468;13.560;2022-09-25T16:31:32;2.60;;;1.70;;
63316;SDS011;49822;41.468;13.560;2022-09-25T16:34:20;3.42;;;2.05;;
63316;SDS011;49822;41.468;13.560;2022-09-25T16:37:05;2.10;;;1.60;;
63316;SDS011;49822;41.468;13.560;2022-09-25T16:40:26;3.60;;;1.73;;
63316;SDS011;49822;41.468;13.560;2022-09-25T16:42:55;2.13;;;1.67;;
63316;SDS011;49822;41.468;13.560;2022-09-25T16:45:28;4.95;;;1.80;;
63316;SDS011;49822;41.468;13.560;2022-09-25T16:48:00;2.60;;;1.83;;
63316;SDS011;49822;41.468;13.560;2022-09-25T16:51:24;2.97;;;1.67;;
63316;SDS011;49822;41.468;13.560;2022-09-25T16:53:58;1.95;;;1.50;;
63316;SDS011;49822;41.468;13.560;2022-09-25T16:56:31;2.53;;;1.80;;
63316;SDS011;49822;41.468;13.560;2022-09-25T16:58:59;2.75;;;1.65;;
63316;SDS011;49822;41.468;13.560;2022-09-25T17:01:27;4.28;;;1.67;;
63316;SDS011;49822;41.468;13.560;2022-09-25T17:03:54;4.18;;;2.38;;
63316;SDS011;49822;41.468;13.560;2022-09-25T17:06:26;2.50;;;1.63;;
63316;SDS011;49822;41.468;13.560;2022-09-25T17:08:56;2.83;;;1.77;;
63316;SDS011;49822;41.468;13.560;2022-09-25T17:11:26;3.55;;;2.00;;
63316;SDS011;49822;41.468;13.560;2022-09-25T17:13:54;2.83;;;1.90;;
63316;SDS011;49822;41.468;13.560;2022-09-25T17:16:22;2.67;;;1.90;;
63316;SDS011;49822;41.468;13.560;2022-09-25T17:18:49;4.38;;;1.90;;
63316;SDS011;49822;41.468;13.560;2022-09-25T17:21:17;4.47;;;2.50;;
63316;SDS011;49822;41.468;13.560;2022-09-25T17:23:47;4.68;;;2.50;;
63316;SDS011;49822;41.468;13.560;2022-09-25T17:26:19;3.78;;;2.53;;
63316;SDS011;49822;41.468;13.560;2022-09-25T17:28:49;4.40;;;2.42;;
63316;SDS011;49822;41.468;13.560;2022-09-25T17:31:18;3.65;;;2.17;;
63316;SDS011;49822;41.468;13.560;2022-09-25T17:33:48;3.73;;;2.30;;
63316;SDS011;49822;41.468;13.560;2022-09-25T17:36:16;6.32;;;2.33;;
63316;SDS011;49822;41.468;13.560;2022-09-25T17:38:44;3.05;;;2.22;;
63316;SDS011;49822;41.468;13.560;2022-09-25T17:41:16;3.88;;;2.28;;
63316;SDS011;49822;41.468;13.560;2022-09-25T17:43:47;4.30;;;2.35;;
63316;SDS011;49822;41.468;13.560;2022-09-25T17:46:15;4.78;;;2.42;;
63316;SDS011;49822;41.468;13.560;2022-09-25T17:48:44;3.05;;;2.30;;
63316;SDS011;49822;41.468;13.560;2022-09-25T17:51:21;3.95;;;2.30;;
63316;SDS011;49822;41.468;13.560;2022-09-25T17:53:52;3.75;;;2.17;;
63316;SDS011;49822;41.468;13.560;2022-09-25T17:56:22;4.85;;;2.30;;
63316;SDS011;49822;41.468;13.560;2022-09-25T17:58:53;3.97;;;2.00;;
63316;SDS011;49822;41.468;13.560;2022-09-25T18:01:26;2.90;;;1.75;;